Lindley, New York
Current Conditions -  °F | °C
As of 10:53 AM on Thursday 23 Oct 2014 (Local Time) from KELM Reporting Station
Overcast Overcast  
Wind Chill: 51°   Ceiling: 1900
Heat Index: 51°   Visibility: 10mi
Dew Point: 43°   Wind: 9mph
Humidity: 74%   Direction: 350°N
Pressure: 29.97"   Gusts: NA
Location:  42.03°N, 77.14°W
Report Text: KELM 231453Z 35008KT 310V020 10SM OVC019 11/06 A2997 RMK AO2 SLP152 T01060061 56002
Loading
Personal Weather Stations






























Interactive Weather Map
Tropical Storm Tracking
New forecast layout! Learn more

10-Day Weather Forecast

Advertisements
Track Severe Weather on mobile